Weather at Silverwood Airport [CLOSED]

Public forecast

Using degrees Fahrenheit for public forecast. Weather courtesy of forecast.io.

Closest aviation weather report (METAR) to Silverwood Airport

Closest report is Coeur D'Alene - Pappy Boyington Field, 9.2 nm (17.0 km) SSW. Retrieved 2021/07/24 23:56 UTC (20 minutes ago):

KCOE 242356Z AUTO 24007KT 10SM CLR 33/04 A3003 RMK AO2 SLP167 T03280044 10333 20256 56022

Closest aviation forecast (TAF) to Silverwood Airport

Closest forecast is Coeur D'Alene - Pappy Boyington Field, 9.2 nm (17.0 km) SSW. Retrieved 2021-07-25 00:22 UTC (0 seconds ago):

TAF KCOE 242320Z 2500/2524 23006KT P6SM SKC FM250200 15005KT P6SM SKC FM252000 20006KT P6SM SKC